createdAt,value
2018-08-31T00:00:15.430Z,13.55
2018-08-31T00:01:15.397Z,13.47
2018-08-31T00:02:15.421Z,13.61
2018-08-31T00:03:15.375Z,13.44
2018-08-31T00:04:15.366Z,13.46
2018-08-31T00:05:15.361Z,13.38
2018-08-31T00:06:15.360Z,13.36
2018-08-31T00:07:15.349Z,13.50
2018-08-31T00:08:15.323Z,13.44
2018-08-31T00:09:15.325Z,13.32
2018-08-31T00:10:15.302Z,13.31
2018-08-31T00:11:15.300Z,13.22
2018-08-31T00:12:15.315Z,13.25
2018-08-31T00:13:15.303Z,13.28
2018-08-31T00:14:15.265Z,13.24
2018-08-31T00:15:15.254Z,13.28
2018-08-31T00:16:15.251Z,13.25
2018-08-31T00:17:15.229Z,13.21
2018-08-31T00:18:15.225Z,13.21
2018-08-31T00:19:15.236Z,13.16
2018-08-31T00:20:15.198Z,13.14
2018-08-31T00:21:15.181Z,13.12
2018-08-31T00:22:15.177Z,13.06
2018-08-31T00:23:15.182Z,13.06
2018-08-31T00:24:15.161Z,13.14
2018-08-31T00:25:15.138Z,12.99
2018-08-31T00:26:15.137Z,13.07
2018-08-31T00:27:15.157Z,13.03
2018-08-31T00:28:15.131Z,12.99
2018-08-31T00:29:15.113Z,12.99
2018-08-31T00:30:15.114Z,12.95
2018-08-31T00:31:15.081Z,12.94
2018-08-31T00:32:15.061Z,12.99
2018-08-31T00:33:15.093Z,12.88
2018-08-31T00:34:15.050Z,12.87
2018-08-31T00:35:15.027Z,12.87
2018-08-31T00:36:15.061Z,12.87
2018-08-31T00:37:15.007Z,12.87
2018-08-31T00:38:14.999Z,12.81
2018-08-31T00:39:14.987Z,12.89
2018-08-31T00:40:14.975Z,12.87
2018-08-31T00:41:14.967Z,12.91
2018-08-31T00:42:15.054Z,12.87
2018-08-31T00:43:14.960Z,12.81
2018-08-31T00:44:14.928Z,12.85
2018-08-31T00:45:14.950Z,12.81
2018-08-31T00:46:14.908Z,12.77
2018-08-31T00:47:14.901Z,12.85
2018-08-31T00:48:14.930Z,12.80
2018-08-31T00:49:14.882Z,12.80
2018-08-31T00:50:14.860Z,12.80
2018-08-31T00:51:14.876Z,12.63
2018-08-31T00:52:14.847Z,12.70
2018-08-31T00:53:14.826Z,12.71
2018-08-31T00:54:14.866Z,12.67
2018-08-31T00:55:14.829Z,12.70
2018-08-31T00:56:14.799Z,12.70
2018-08-31T00:57:14.789Z,12.67
2018-08-31T00:58:14.773Z,12.63
2018-08-31T00:59:14.764Z,12.66
2018-08-31T01:00:14.769Z,12.66
2018-08-31T01:01:14.784Z,12.55
2018-08-31T01:02:14.788Z,12.55
2018-08-31T01:03:14.718Z,12.56
2018-08-31T01:04:14.712Z,12.52
2018-08-31T01:05:14.705Z,12.55
2018-08-31T01:06:14.696Z,12.52
2018-08-31T01:07:14.680Z,12.56
2018-08-31T01:08:14.694Z,12.58
2018-08-31T01:09:14.669Z,12.55
2018-08-31T01:10:14.641Z,12.52
2018-08-31T01:11:14.641Z,12.51
2018-08-31T01:12:14.652Z,12.51
2018-08-31T01:13:14.653Z,12.54
2018-08-31T01:14:14.626Z,12.49
2018-08-31T01:15:14.597Z,12.54
2018-08-31T01:16:14.576Z,12.56
2018-08-31T01:17:14.590Z,12.44
2018-08-31T01:18:14.566Z,12.43
2018-08-31T01:19:14.541Z,12.43
2018-08-31T01:20:14.572Z,12.44
2018-08-31T01:21:14.526Z,12.40
2018-08-31T01:22:14.517Z,12.52
2018-08-31T01:23:14.507Z,12.43
2018-08-31T01:24:14.493Z,12.51
2018-08-31T01:25:14.505Z,12.51
2018-08-31T01:26:14.491Z,12.54
2018-08-31T01:27:14.482Z,12.40
2018-08-31T01:28:14.455Z,12.52
2018-08-31T01:29:14.449Z,12.43
2018-08-31T01:30:14.429Z,12.33
2018-08-31T01:31:14.438Z,12.41
2018-08-31T01:32:14.424Z,12.44
2018-08-31T01:33:14.453Z,12.46
2018-08-31T01:34:14.393Z,12.49
2018-08-31T01:35:14.377Z,12.43
2018-08-31T01:36:14.388Z,12.46
2018-08-31T01:37:14.355Z,12.36
2018-08-31T01:38:14.382Z,12.37
2018-08-31T01:39:14.332Z,12.38
2018-08-31T01:40:14.329Z,12.38
2018-08-31T01:41:14.337Z,12.38
2018-08-31T01:42:14.295Z,12.37
2018-08-31T01:43:14.287Z,12.33
2018-08-31T01:44:14.338Z,12.36
2018-08-31T01:45:14.264Z,12.36
2018-08-31T01:46:14.255Z,12.22
2018-08-31T01:47:14.244Z,12.30
2018-08-31T01:48:14.226Z,12.33
2018-08-31T01:49:14.224Z,12.22
2018-08-31T01:50:14.272Z,12.26
2018-08-31T01:51:14.202Z,12.31
2018-08-31T01:52:14.190Z,12.23
2018-08-31T01:53:14.198Z,12.29
2018-08-31T01:54:14.179Z,12.25
2018-08-31T01:55:14.173Z,12.26
2018-08-31T01:56:14.184Z,12.22
2018-08-31T01:57:14.140Z,12.08
2018-08-31T01:58:14.122Z,12.22
2018-08-31T01:59:14.116Z,12.13
2018-08-31T02:00:14.122Z,12.05
2018-08-31T02:01:14.091Z,12.12
2018-08-31T02:02:14.123Z,12.11
2018-08-31T02:03:14.068Z,12.11
2018-08-31T02:04:14.134Z,12.07
2018-08-31T02:05:14.085Z,12.12
2018-08-31T02:06:14.037Z,12.08
2018-08-31T02:07:14.030Z,12.12
2018-08-31T02:08:14.031Z,12.13
2018-08-31T02:09:13.999Z,12.12
2018-08-31T02:10:13.989Z,12.11
2018-08-31T02:11:14.016Z,11.98
2018-08-31T02:12:13.983Z,12.03
2018-08-31T02:13:13.960Z,12.11
2018-08-31T02:14:13.980Z,12.08
2018-08-31T02:15:13.939Z,12.00
2018-08-31T02:16:13.924Z,12.07
2018-08-31T02:17:13.946Z,12.01
2018-08-31T02:18:13.901Z,11.94
2018-08-31T02:19:13.897Z,11.98
2018-08-31T02:20:13.911Z,12.00
2018-08-31T02:21:13.875Z,11.98
2018-08-31T02:22:13.892Z,11.97
2018-08-31T02:23:13.854Z,12.00
2018-08-31T02:24:13.837Z,11.98
2018-08-31T02:25:13.832Z,11.97
2018-08-31T02:26:13.838Z,12.03
2018-08-31T02:27:13.809Z,11.97
2018-08-31T02:28:13.808Z,12.01
2018-08-31T02:29:13.798Z,12.03
2018-08-31T02:30:13.792Z,12.00
2018-08-31T02:31:13.769Z,12.03
2018-08-31T02:32:13.781Z,12.03
2018-08-31T02:33:13.780Z,11.98
2018-08-31T02:34:13.763Z,12.04
2018-08-31T02:35:13.719Z,11.94
2018-08-31T02:36:13.706Z,11.97
2018-08-31T02:37:13.695Z,11.94
2018-08-31T02:38:13.714Z,11.94
2018-08-31T02:39:13.710Z,11.90
2018-08-31T02:40:13.686Z,11.90
2018-08-31T02:41:13.674Z,11.94
2018-08-31T02:42:13.656Z,11.87
2018-08-31T02:43:13.648Z,11.88
2018-08-31T02:44:13.625Z,11.93
2018-08-31T02:45:13.652Z,11.84
2018-08-31T02:46:13.636Z,11.85
2018-08-31T02:47:13.610Z,11.81
2018-08-31T02:48:13.629Z,11.74
2018-08-31T02:49:13.560Z,11.77
2018-08-31T02:50:13.553Z,11.81
2018-08-31T02:51:13.588Z,11.78
2018-08-31T02:52:13.551Z,11.74
2018-08-31T02:53:13.556Z,11.77
2018-08-31T02:54:13.520Z,11.79
2018-08-31T02:55:13.508Z,11.72
2018-08-31T02:56:13.493Z,11.64
2018-08-31T02:57:13.483Z,11.67
2018-08-31T02:58:13.511Z,11.64
2018-08-31T02:59:13.481Z,11.57
2018-08-31T03:00:13.446Z,11.57
2018-08-31T03:01:13.449Z,11.63
2018-08-31T03:02:13.423Z,11.54
2018-08-31T03:03:13.424Z,11.54
2018-08-31T03:04:13.405Z,11.49
2018-08-31T03:05:13.414Z,11.51
2018-08-31T03:06:13.373Z,11.49
2018-08-31T03:07:13.367Z,11.49
2018-08-31T03:08:13.382Z,11.45
2018-08-31T03:09:13.351Z,11.41
2018-08-31T03:10:13.333Z,11.41
2018-08-31T03:11:13.361Z,11.41
2018-08-31T03:12:13.314Z,11.39
2018-08-31T03:13:13.301Z,11.41
2018-08-31T03:14:13.321Z,11.28
2018-08-31T03:15:13.278Z,11.31
2018-08-31T03:16:13.267Z,11.38
2018-08-31T03:17:13.277Z,11.31
2018-08-31T03:18:13.249Z,11.35
2018-08-31T03:19:13.282Z,11.20
2018-08-31T03:20:13.218Z,11.30
2018-08-31T03:21:13.292Z,11.27
2018-08-31T03:22:13.203Z,11.27
2018-08-31T03:23:13.226Z,11.20
2018-08-31T03:24:13.194Z,11.13
2018-08-31T03:25:13.163Z,11.26
2018-08-31T03:26:13.185Z,11.17
2018-08-31T03:27:13.146Z,11.16
2018-08-31T03:28:13.153Z,11.21
2018-08-31T03:29:13.174Z,11.20
2018-08-31T03:30:13.112Z,11.17
2018-08-31T03:31:13.125Z,11.13
2018-08-31T03:32:13.091Z,11.12
2018-08-31T03:33:13.074Z,11.19
2018-08-31T03:34:13.065Z,11.13
2018-08-31T03:35:13.121Z,11.08
2018-08-31T03:36:13.047Z,11.13
2018-08-31T03:37:13.040Z,11.16
2018-08-31T03:38:13.036Z,11.19
2018-08-31T03:39:13.013Z,11.11
2018-08-31T03:40:13.037Z,11.08
2018-08-31T03:41:13.044Z,11.17
2018-08-31T03:42:13.023Z,11.06
2018-08-31T03:43:12.989Z,11.13
2018-08-31T03:44:12.976Z,11.11
2018-08-31T03:45:12.979Z,11.06
2018-08-31T03:46:12.984Z,11.09
2018-08-31T03:47:12.934Z,11.06
2018-08-31T03:48:12.947Z,11.06
2018-08-31T03:49:12.940Z,11.12
2018-08-31T03:50:12.898Z,11.16
2018-08-31T03:51:12.935Z,11.13
2018-08-31T03:52:12.879Z,11.16
2018-08-31T03:53:12.870Z,11.17
2018-08-31T03:54:12.974Z,11.13
2018-08-31T03:55:12.865Z,11.16
2018-08-31T03:56:12.918Z,11.16
2018-08-31T03:57:12.835Z,11.21
2018-08-31T03:58:12.822Z,11.11
2018-08-31T03:59:12.806Z,11.16
2018-08-31T04:00:12.855Z,11.17
2018-08-31T04:01:12.787Z,11.13
2018-08-31T04:02:12.765Z,11.19
2018-08-31T04:03:12.754Z,11.16
2018-08-31T04:04:12.749Z,11.16
2018-08-31T04:05:12.746Z,11.16
2018-08-31T04:06:12.719Z,11.17
2018-08-31T04:07:12.717Z,11.19
2018-08-31T04:08:12.752Z,11.19
2018-08-31T04:09:12.738Z,11.13
2018-08-31T04:10:12.705Z,11.12
2018-08-31T04:11:12.699Z,11.16
2018-08-31T04:12:12.657Z,11.20
2018-08-31T04:13:12.668Z,11.13
2018-08-31T04:14:12.683Z,11.19
2018-08-31T04:15:12.724Z,11.12
2018-08-31T04:16:12.674Z,11.21
2018-08-31T04:17:12.603Z,11.20
2018-08-31T04:18:12.587Z,11.16
2018-08-31T04:19:12.579Z,11.12
2018-08-31T04:20:12.590Z,11.11
2018-08-31T04:21:12.574Z,11.16
2018-08-31T04:22:12.610Z,11.13
2018-08-31T04:23:12.545Z,11.09
2018-08-31T04:24:12.540Z,11.17
2018-08-31T04:25:12.548Z,11.16
2018-08-31T04:26:12.514Z,11.24
2018-08-31T04:27:12.486Z,11.17
2018-08-31T04:28:12.751Z,11.12
2018-08-31T04:29:12.474Z,11.17
2018-08-31T04:30:12.473Z,11.19
2018-08-31T04:31:12.518Z,11.21
2018-08-31T04:32:12.511Z,11.12
2018-08-31T04:33:12.515Z,11.16
2018-08-31T04:34:12.597Z,11.19
2018-08-31T04:35:12.408Z,11.09
2018-08-31T04:36:12.407Z,11.16
2018-08-31T04:37:12.463Z,11.16
2018-08-31T04:38:12.382Z,11.06
2018-08-31T04:39:12.370Z,11.03
2018-08-31T04:40:12.351Z,11.06
2018-08-31T04:41:12.349Z,11.06
2018-08-31T04:42:12.430Z,11.06
2018-08-31T04:43:12.333Z,11.05
2018-08-31T04:44:12.343Z,11.03
2018-08-31T04:45:12.459Z,11.09
2018-08-31T04:46:12.289Z,11.06
2018-08-31T04:47:12.269Z,10.95
2018-08-31T04:48:12.262Z,11.06
2018-08-31T04:49:12.320Z,11.05
2018-08-31T04:50:12.252Z,10.95
2018-08-31T04:51:12.238Z,10.93
2018-08-31T04:52:12.256Z,11.06
2018-08-31T04:53:12.233Z,11.03
2018-08-31T04:54:12.321Z,11.02
2018-08-31T04:55:12.231Z,11.03
2018-08-31T04:56:12.211Z,11.08
2018-08-31T04:57:12.237Z,11.12
2018-08-31T04:58:12.208Z,11.02
2018-08-31T04:59:12.221Z,11.03
2018-08-31T05:00:12.123Z,11.06
2018-08-31T05:01:12.156Z,11.11
2018-08-31T05:02:12.165Z,11.05
2018-08-31T05:03:12.142Z,11.17
2018-08-31T05:04:12.073Z,11.08
2018-08-31T05:05:12.097Z,11.16
2018-08-31T05:06:12.057Z,11.13
2018-08-31T05:07:12.042Z,11.11
2018-08-31T05:08:12.123Z,11.17
2018-08-31T05:09:15.290Z,11.11
2018-08-31T05:10:12.062Z,11.19
2018-08-31T05:11:12.028Z,11.19
2018-08-31T05:12:12.019Z,11.24
2018-08-31T05:13:11.990Z,11.24
2018-08-31T05:14:12.030Z,11.28
2018-08-31T05:15:12.091Z,11.30
2018-08-31T05:16:12.186Z,11.30
2018-08-31T05:29:40.129Z,11.45
2018-08-31T05:30:39.714Z,11.49
2018-08-31T05:44:56.888Z,11.78
2018-08-31T05:45:56.555Z,11.69
2018-08-31T05:46:56.481Z,11.81
2018-08-31T05:47:56.498Z,11.77
2018-08-31T05:48:56.417Z,11.74
2018-08-31T05:49:56.367Z,11.81
2018-08-31T05:50:56.352Z,11.79
2018-08-31T05:51:56.312Z,11.82
2018-08-31T05:52:56.354Z,11.85
2018-08-31T05:53:56.271Z,11.85
2018-08-31T05:54:56.269Z,11.96
2018-08-31T05:55:56.329Z,11.94
2018-08-31T05:56:56.337Z,11.93
2018-08-31T05:57:56.282Z,11.96
2018-08-31T05:58:56.238Z,11.94
2018-08-31T05:59:56.224Z,12.05
2018-08-31T06:00:56.276Z,11.97
2018-08-31T06:01:56.180Z,12.03
2018-08-31T06:02:56.187Z,12.04
2018-08-31T06:03:56.192Z,12.07
2018-08-31T06:04:56.225Z,12.13
2018-08-31T06:05:56.222Z,12.13
2018-08-31T06:06:56.167Z,12.13
2018-08-31T06:07:56.150Z,12.11
2018-08-31T06:08:56.155Z,12.21
2018-08-31T06:09:56.068Z,12.22
2018-08-31T06:10:56.092Z,12.23
2018-08-31T06:11:56.135Z,12.29
2018-08-31T06:12:56.034Z,12.30
2018-08-31T06:13:56.064Z,12.38
2018-08-31T06:14:56.050Z,12.36
2018-08-31T06:15:55.991Z,12.37
2018-08-31T06:16:55.996Z,12.38
2018-08-31T06:17:55.996Z,12.38
2018-08-31T06:18:55.967Z,12.38
2018-08-31T06:19:55.970Z,12.34
2018-08-31T06:20:55.934Z,12.46
2018-08-31T06:21:55.951Z,12.51
2018-08-31T06:22:55.926Z,12.49
2018-08-31T06:23:55.923Z,12.48
2018-08-31T06:24:55.986Z,12.52
2018-08-31T06:25:56.018Z,12.55
2018-08-31T06:26:55.900Z,12.55
2018-08-31T06:27:55.918Z,12.59
2018-08-31T06:28:55.874Z,12.66
2018-08-31T06:29:55.934Z,12.62
2018-08-31T06:30:55.860Z,12.70
2018-08-31T06:31:55.847Z,12.63
2018-08-31T06:32:55.862Z,12.63
2018-08-31T06:33:55.850Z,12.74
2018-08-31T06:34:55.780Z,12.77
2018-08-31T06:35:55.756Z,12.85
2018-08-31T06:36:55.853Z,12.80
2018-08-31T06:37:55.780Z,12.80
2018-08-31T06:38:55.732Z,12.85
2018-08-31T06:39:55.704Z,12.85
2018-08-31T06:40:55.831Z,12.89
2018-08-31T06:41:55.721Z,12.91
2018-08-31T06:42:55.784Z,12.88
2018-08-31T06:43:55.716Z,12.94
2018-08-31T06:44:55.703Z,13.04
2018-08-31T06:45:55.656Z,13.04
2018-08-31T06:46:55.645Z,13.07
2018-08-31T06:47:55.676Z,13.01
2018-08-31T06:48:55.662Z,13.09
2018-08-31T06:49:55.626Z,13.03
2018-08-31T06:50:55.678Z,13.06
2018-08-31T06:53:36.191Z,13.21
2018-08-31T06:54:35.716Z,13.19
2018-08-31T06:57:21.267Z,13.31
2018-08-31T06:58:20.786Z,13.32
2018-08-31T06:59:20.764Z,13.35
2018-08-31T07:00:20.722Z,13.35
2018-08-31T07:01:20.570Z,13.51
2018-08-31T07:02:20.532Z,13.41
2018-08-31T07:03:20.545Z,13.47
2018-08-31T07:04:20.539Z,13.46
2018-08-31T07:05:20.489Z,13.61
2018-08-31T07:06:20.517Z,13.54
2018-08-31T07:07:20.486Z,13.55
2018-08-31T07:08:20.501Z,13.57
2018-08-31T07:09:20.540Z,13.62
2018-08-31T07:10:20.433Z,13.65
2018-08-31T07:11:20.434Z,13.61
2018-08-31T07:12:20.567Z,13.68
2018-08-31T07:13:20.432Z,13.69
2018-08-31T07:14:20.436Z,13.68
2018-08-31T07:15:20.380Z,13.69
2018-08-31T07:16:20.448Z,13.71
2018-08-31T07:17:20.379Z,13.79
2018-08-31T07:18:20.363Z,13.81
2018-08-31T07:19:20.440Z,13.69
2018-08-31T07:20:20.334Z,13.90
2018-08-31T07:21:20.321Z,13.93
2018-08-31T07:22:20.325Z,13.86
2018-08-31T07:23:20.286Z,13.87
2018-08-31T07:24:20.331Z,13.93
2018-08-31T07:25:20.290Z,13.94
2018-08-31T07:26:20.310Z,13.88
2018-08-31T07:27:20.232Z,13.93
2018-08-31T07:28:20.229Z,14.01
2018-08-31T07:29:20.242Z,13.93
2018-08-31T07:30:20.226Z,13.88
2018-08-31T07:31:20.239Z,13.88
2018-08-31T07:32:20.196Z,13.98
2018-08-31T07:33:20.208Z,13.99
2018-08-31T07:34:20.155Z,13.96
2018-08-31T07:35:20.215Z,14.02
2018-08-31T07:36:20.197Z,13.96
2018-08-31T07:37:20.197Z,13.98
2018-08-31T07:38:20.123Z,13.98
2018-08-31T07:39:20.125Z,14.01
2018-08-31T07:40:20.112Z,14.02
2018-08-31T07:41:20.108Z,14.09
2018-08-31T07:42:20.153Z,14.02
2018-08-31T07:43:20.179Z,14.23
2018-08-31T07:44:20.074Z,14.16
2018-08-31T07:45:20.037Z,14.27
2018-08-31T07:46:20.034Z,14.24
2018-08-31T07:47:20.002Z,14.21
2018-08-31T07:48:20.054Z,14.34
2018-08-31T07:49:20.015Z,14.31
2018-08-31T07:50:20.016Z,14.38
2018-08-31T07:51:20.031Z,14.41
2018-08-31T07:52:19.982Z,14.45
2018-08-31T07:53:19.969Z,14.48
2018-08-31T07:54:19.938Z,14.56
2018-08-31T07:55:19.914Z,14.63
2018-08-31T07:56:19.944Z,14.59
2018-08-31T07:57:20.022Z,14.80
2018-08-31T07:58:19.900Z,14.74
2018-08-31T07:59:19.920Z,14.72
2018-08-31T08:00:19.873Z,14.75
2018-08-31T08:01:19.867Z,14.91
2018-08-31T08:02:19.859Z,14.94
2018-08-31T08:03:19.910Z,14.94
2018-08-31T08:04:19.844Z,15.09
2018-08-31T08:05:19.836Z,15.09
2018-08-31T08:06:19.847Z,15.13
2018-08-31T08:07:19.800Z,15.18
2018-08-31T08:08:19.785Z,15.20
2018-08-31T08:09:19.781Z,15.19
2018-08-31T08:10:19.819Z,15.30
2018-08-31T08:11:19.807Z,15.34
2018-08-31T08:12:19.761Z,15.37
2018-08-31T08:13:19.802Z,15.34
2018-08-31T08:14:19.733Z,15.52
2018-08-31T08:15:19.697Z,15.64
2018-08-31T08:16:19.687Z,15.67
2018-08-31T08:17:19.694Z,15.80
2018-08-31T08:18:19.751Z,15.86
2018-08-31T08:19:19.657Z,15.93
2018-08-31T08:20:19.696Z,15.92
2018-08-31T08:21:19.673Z,16.08
2018-08-31T08:22:19.627Z,16.06
2018-08-31T08:23:19.621Z,16.18
2018-08-31T08:24:19.624Z,16.25
2018-08-31T08:25:19.604Z,16.41
2018-08-31T08:26:19.640Z,16.45
2018-08-31T08:27:19.594Z,16.48
2018-08-31T08:28:19.595Z,16.62
2018-08-31T08:29:19.610Z,16.72
2018-08-31T08:30:19.572Z,16.81
2018-08-31T08:31:19.526Z,16.92
2018-08-31T08:32:19.563Z,16.88
2018-08-31T08:33:19.550Z,16.90
2018-08-31T08:34:19.562Z,16.87
2018-08-31T08:35:19.504Z,17.00
2018-08-31T08:36:19.524Z,17.02
2018-08-31T08:37:19.455Z,17.15
2018-08-31T08:38:19.497Z,17.27
2018-08-31T08:39:19.442Z,17.38
2018-08-31T08:40:19.492Z,17.43
2018-08-31T08:41:19.411Z,17.73
2018-08-31T08:42:19.440Z,17.80
2018-08-31T08:43:19.463Z,17.95
2018-08-31T08:44:19.416Z,18.02
2018-08-31T08:45:19.379Z,18.09
2018-08-31T08:46:19.381Z,18.07
2018-08-31T08:47:19.439Z,18.05
2018-08-31T08:48:19.453Z,18.16
2018-08-31T08:49:19.374Z,18.34
2018-08-31T08:50:19.356Z,18.31
2018-08-31T08:51:19.304Z,18.39
2018-08-31T08:52:19.328Z,18.54
2018-08-31T08:53:19.303Z,18.47
2018-08-31T08:54:19.379Z,18.50
2018-08-31T08:55:19.319Z,18.62
2018-08-31T08:56:19.264Z,18.74
2018-08-31T08:57:19.232Z,18.82
2018-08-31T08:58:19.301Z,18.96
2018-08-31T08:59:19.215Z,19.20
2018-08-31T09:00:19.247Z,19.28
2018-08-31T09:01:19.203Z,19.43
2018-08-31T09:02:19.212Z,19.47
2018-08-31T09:03:19.174Z,19.55
2018-08-31T09:04:19.263Z,19.75
2018-08-31T09:05:19.160Z,19.72
2018-08-31T09:06:19.152Z,19.82
2018-08-31T09:07:19.143Z,19.83
2018-08-31T09:08:19.181Z,19.92
2018-08-31T09:09:19.122Z,19.83
2018-08-31T09:10:19.149Z,19.95
2018-08-31T09:11:19.092Z,20.07
2018-08-31T09:12:19.192Z,20.17
2018-08-31T09:13:19.255Z,20.17
2018-08-31T09:14:19.097Z,20.23
2018-08-31T09:15:19.048Z,20.19
2018-08-31T09:16:19.148Z,20.22
2018-08-31T09:17:19.124Z,20.33
2018-08-31T09:18:19.047Z,20.48
2018-08-31T09:21:01.466Z,20.68
2018-08-31T09:22:01.040Z,20.68
2018-08-31T09:23:01.306Z,20.79
2018-08-31T09:24:01.137Z,20.68
2018-08-31T09:25:00.971Z,20.60
2018-08-31T09:26:00.847Z,20.51
2018-08-31T09:27:00.880Z,20.56
2018-08-31T09:28:00.869Z,20.53
2018-08-31T09:29:00.845Z,20.48
2018-08-31T09:30:00.818Z,20.42
2018-08-31T09:31:00.808Z,20.54
2018-08-31T09:32:00.842Z,20.71
2018-08-31T09:33:00.830Z,20.69
2018-08-31T09:34:00.775Z,20.90
2018-08-31T09:35:00.847Z,20.97
2018-08-31T09:36:00.804Z,21.08
2018-08-31T09:37:00.740Z,21.03
2018-08-31T09:38:00.772Z,20.85
2018-08-31T09:39:00.734Z,20.73
2018-08-31T09:40:00.836Z,20.66
2018-08-31T09:41:00.792Z,20.75
2018-08-31T09:42:00.682Z,20.87
2018-08-31T09:43:00.679Z,20.88
2018-08-31T09:44:00.786Z,20.88
2018-08-31T09:45:00.757Z,20.91
2018-08-31T09:46:00.724Z,20.76
2018-08-31T09:47:00.631Z,20.66
2018-08-31T09:48:00.647Z,20.54
2018-08-31T09:49:00.635Z,20.53
2018-08-31T09:50:00.612Z,20.51
2018-08-31T09:51:00.632Z,20.48
2018-08-31T09:52:00.593Z,20.50
2018-08-31T09:53:00.563Z,20.53
2018-08-31T09:54:00.557Z,20.50
2018-08-31T09:55:00.845Z,20.54
2018-08-31T09:56:00.530Z,20.60
2018-08-31T09:58:14.012Z,20.04
2018-08-31T09:59:13.685Z,19.94
2018-08-31T10:00:13.566Z,19.75
2018-08-31T10:01:14.568Z,19.71
2018-08-31T10:02:13.495Z,19.68
2018-08-31T10:03:13.436Z,19.68
2018-08-31T10:04:13.442Z,19.71
2018-08-31T10:05:13.411Z,19.70
2018-08-31T10:06:13.390Z,19.62
2018-08-31T10:07:13.380Z,19.55
2018-08-31T10:08:13.364Z,19.49
2018-08-31T10:09:13.520Z,19.49
2018-08-31T10:10:13.374Z,19.50
2018-08-31T10:11:13.356Z,19.57
2018-08-31T10:12:13.355Z,19.57
2018-08-31T10:13:13.388Z,19.71
2018-08-31T10:14:13.448Z,19.78
2018-08-31T10:15:13.295Z,19.83
2018-08-31T10:16:13.282Z,19.94
2018-08-31T10:17:13.279Z,20.04
2018-08-31T10:18:14.008Z,19.94
2018-08-31T10:19:13.287Z,19.83
2018-08-31T10:20:13.252Z,19.82
2018-08-31T10:21:13.300Z,19.94
2018-08-31T10:22:13.262Z,19.89
2018-08-31T10:23:13.254Z,20.01
2018-08-31T10:24:13.198Z,20.08
2018-08-31T10:25:13.220Z,20.20
2018-08-31T10:26:13.246Z,20.33
2018-08-31T10:27:13.189Z,20.44
2018-08-31T10:28:13.198Z,20.66
2018-08-31T10:29:13.173Z,20.83
2018-08-31T10:30:13.245Z,21.11
2018-08-31T10:31:13.262Z,21.15
2018-08-31T10:32:13.133Z,21.24
2018-08-31T10:33:13.130Z,21.40
2018-08-31T10:34:13.114Z,21.37
2018-08-31T11:02:06.111Z,21.51
2018-08-31T11:44:49.670Z,20.94
2018-08-31T11:45:49.714Z,20.88
2018-08-31T11:48:07.402Z,21.05
2018-08-31T11:49:07.431Z,21.15
2018-08-31T11:50:07.660Z,21.33
2018-08-31T11:51:07.337Z,21.36
2018-08-31T11:52:16.173Z,21.48
2018-08-31T11:53:08.385Z,21.67
2018-08-31T11:54:08.405Z,21.61
2018-08-31T11:56:25.658Z,21.82
2018-08-31T11:57:25.211Z,21.74
2018-08-31T11:58:25.291Z,21.91
2018-08-31T11:59:35.591Z,21.90
2018-08-31T12:00:25.410Z,21.82
2018-08-31T12:09:05.705Z,20.78
2018-08-31T12:09:53.200Z,20.71
2018-08-31T12:20:39.226Z,20.38
2018-08-31T12:21:38.757Z,20.40
2018-08-31T12:22:38.179Z,20.31
2018-08-31T12:23:38.187Z,20.22
2018-08-31T12:24:38.158Z,20.15
2018-08-31T12:25:38.185Z,20.15
2018-08-31T12:26:38.222Z,20.12
2018-08-31T12:27:38.175Z,20.26
2018-08-31T12:28:38.114Z,20.22
2018-08-31T12:29:38.128Z,20.23
2018-08-31T12:30:38.175Z,20.27
2018-08-31T12:31:38.135Z,20.33
2018-08-31T12:32:38.128Z,20.34
2018-08-31T12:33:38.126Z,20.35
2018-08-31T12:45:13.241Z,20.22
2018-08-31T12:46:13.378Z,20.19
2018-08-31T12:47:13.323Z,20.22
2018-08-31T12:49:24.261Z,20.38
2018-08-31T12:50:23.800Z,20.40
2018-08-31T12:51:23.832Z,20.46
2018-08-31T12:52:23.895Z,20.38
2018-08-31T12:53:24.075Z,20.48
2018-08-31T12:54:23.764Z,20.51
2018-08-31T12:55:23.739Z,20.66
2018-08-31T12:56:23.779Z,20.81
2018-08-31T12:57:23.701Z,20.94
2018-08-31T12:58:23.692Z,21.18
2018-08-31T12:59:23.688Z,21.27
2018-08-31T13:00:23.744Z,21.24
2018-08-31T13:01:23.723Z,21.34
2018-08-31T13:02:23.662Z,21.51
2018-08-31T13:03:23.692Z,21.53
2018-08-31T13:04:23.649Z,21.51
2018-08-31T13:05:23.621Z,21.48
2018-08-31T13:06:23.642Z,21.58
2018-08-31T13:07:23.712Z,21.48
2018-08-31T13:08:23.599Z,21.51
2018-08-31T13:09:23.705Z,21.46
2018-08-31T13:10:23.582Z,21.36
2018-08-31T13:11:23.598Z,21.38
2018-08-31T13:12:23.649Z,21.24
2018-08-31T13:13:23.697Z,21.31
2018-08-31T13:14:23.591Z,21.26
2018-08-31T13:16:59.080Z,21.30
2018-08-31T13:18:12.020Z,21.30
2018-08-31T13:18:58.326Z,21.15
2018-08-31T13:19:58.273Z,21.19
2018-08-31T13:20:58.826Z,21.33
2018-08-31T13:21:58.166Z,21.37
2018-08-31T13:22:57.874Z,21.45
2018-08-31T13:23:57.857Z,21.58
2018-08-31T13:24:57.852Z,21.68
2018-08-31T13:25:57.830Z,21.67
2018-08-31T13:26:57.838Z,21.68
2018-08-31T13:27:57.828Z,21.77
2018-08-31T13:28:57.860Z,21.70
2018-08-31T13:29:57.820Z,21.77
2018-08-31T13:30:57.860Z,21.75
2018-08-31T13:31:57.805Z,21.79
2018-08-31T13:32:57.776Z,21.79
2018-08-31T13:33:57.861Z,21.81
2018-08-31T13:34:57.940Z,21.89
2018-08-31T14:01:07.737Z,22.49
2018-08-31T14:02:07.373Z,22.30
2018-08-31T14:03:07.275Z,22.30
2018-08-31T14:04:07.280Z,22.11
2018-08-31T14:05:07.227Z,22.11
2018-08-31T14:06:07.396Z,22.02
2018-08-31T14:07:08.171Z,22.11
2018-08-31T14:08:07.123Z,22.17
2018-08-31T14:09:07.101Z,22.12
2018-08-31T14:10:07.141Z,22.12
2018-08-31T14:11:07.091Z,22.23
2018-08-31T14:12:07.070Z,22.11
2018-08-31T14:13:07.157Z,22.24
2018-08-31T14:14:07.065Z,22.17
2018-08-31T14:15:07.227Z,22.08
2018-08-31T14:16:07.069Z,22.12
2018-08-31T14:17:07.063Z,22.15
2018-08-31T14:18:07.068Z,22.26
2018-08-31T14:19:07.003Z,22.26
2018-08-31T14:20:07.000Z,22.27
2018-08-31T14:21:07.142Z,22.24
2018-08-31T14:22:07.065Z,22.33
2018-08-31T14:23:06.999Z,22.30
2018-08-31T14:24:06.934Z,22.41
2018-08-31T14:25:06.922Z,22.45
2018-08-31T14:26:06.958Z,22.20
2018-08-31T14:27:06.915Z,22.30
2018-08-31T14:28:06.888Z,22.27
2018-08-31T14:29:10.132Z,22.29
2018-08-31T14:30:07.571Z,22.26
2018-08-31T14:31:06.873Z,22.23
2018-08-31T14:32:06.856Z,22.27
2018-08-31T14:33:06.842Z,22.27
2018-08-31T14:34:06.825Z,22.09
2018-08-31T14:35:06.833Z,22.05
2018-08-31T14:36:06.844Z,22.06
2018-08-31T14:37:06.868Z,21.94
2018-08-31T14:38:06.831Z,21.99
2018-08-31T14:39:06.774Z,22.04
2018-08-31T14:40:06.761Z,21.99
2018-08-31T14:41:06.824Z,21.93
2018-08-31T14:42:06.764Z,21.71
2018-08-31T14:43:06.726Z,21.59
2018-08-31T14:44:06.829Z,21.45
2018-08-31T14:45:06.767Z,21.52
2018-08-31T14:46:06.693Z,21.46
2018-08-31T14:47:06.712Z,21.48
2018-08-31T14:48:07.869Z,21.46
2018-08-31T14:49:06.803Z,21.37
2018-08-31T14:50:06.663Z,21.42
2018-08-31T14:51:07.627Z,21.51
2018-08-31T14:52:06.639Z,21.43
2018-08-31T14:53:07.705Z,21.30
2018-08-31T14:54:06.639Z,21.16
2018-08-31T14:55:06.597Z,21.18
2018-08-31T14:56:07.395Z,21.11
2018-08-31T14:57:06.582Z,21.06
2018-08-31T14:58:06.566Z,21.09
2018-08-31T14:59:06.579Z,21.05
2018-08-31T15:00:06.564Z,21.09
2018-08-31T15:01:06.566Z,21.16
2018-08-31T15:02:06.655Z,21.05
2018-08-31T15:04:46.770Z,20.94
2018-08-31T15:09:20.457Z,21.03
2018-08-31T15:10:20.146Z,21.08
2018-08-31T15:11:20.225Z,21.09
2018-08-31T15:12:19.944Z,20.81
2018-08-31T15:13:19.958Z,20.76
2018-08-31T15:14:20.019Z,20.68
2018-08-31T15:16:45.092Z,20.58
2018-08-31T15:17:44.818Z,20.60
2018-08-31T15:18:45.189Z,20.68
2018-08-31T15:19:44.208Z,20.58
2018-08-31T15:20:44.428Z,20.56
2018-08-31T15:21:47.163Z,20.53
2018-08-31T15:22:45.075Z,20.54
2018-08-31T15:23:44.219Z,20.57
2018-08-31T15:24:44.156Z,20.46
2018-08-31T15:34:20.465Z,20.68
2018-08-31T15:35:19.981Z,20.63
2018-08-31T15:36:20.955Z,20.75
2018-08-31T15:38:41.265Z,20.68
2018-08-31T15:39:40.496Z,20.75
2018-08-31T16:32:44.528Z,19.87
2018-08-31T16:33:44.357Z,19.86
2018-08-31T16:34:47.291Z,19.79
2018-08-31T16:35:45.197Z,19.83
2018-08-31T16:36:45.382Z,19.76
2018-08-31T16:43:45.810Z,19.95
2018-08-31T16:44:45.265Z,20.01
2018-08-31T16:45:45.553Z,20.10